Time;durP1;ratioP1;P1;durP2;ratioP2;P2;SDS_P1;SDS_P2;PMS_P1;PMS_P2;Temp;Humidity;BMP_temperature;BMP_pressure;BME280_temperature;BME280_humidity;BME280_pressure;Samples;Min_cycle;Max_cycle;Signal;HPM_P1;HPM_P2
2022/10/27 00:00:02;;;;;;;15.80;7.60;;;11.50;76.30;;;;;;5018483;28;20026;-68
2022/10/27 00:02:28;;;;;;;20.02;9.50;;;11.40;76.00;;;;;;5027252;28;20092;-68
2022/10/27 00:04:53;;;;;;;19.45;8.52;;;11.40;75.20;;;;;;5022557;28;20108;-67
2022/10/27 00:07:19;;;;;;;18.10;7.22;;;11.30;75.30;;;;;;5019251;28;20026;-66
2022/10/27 00:09:45;;;;;;;16.45;7.82;;;11.30;74.50;;;;;;5022823;28;20701;-67
2022/10/27 00:12:13;;;;;;;16.27;7.22;;;11.20;74.60;;;;;;5035841;28;20029;-66
2022/10/27 00:14:40;;;;;;;18.10;8.07;;;11.20;74.30;;;;;;5019059;28;20033;-67
2022/10/27 00:17:08;;;;;;;18.70;7.45;;;11.10;74.00;;;;;;5016798;28;20036;-68
2022/10/27 00:19:34;;;;;;;14.63;6.95;;;11.10;73.80;;;;;;5020446;28;20031;-68
2022/10/27 00:22:02;;;;;;;17.15;7.55;;;11.10;73.30;;;;;;5026959;28;20104;-68
2022/10/27 00:24:27;;;;;;;15.30;8.15;;;11.10;73.10;;;;;;5023307;28;20030;-68
2022/10/27 00:26:53;;;;;;;21.95;7.60;;;11.10;73.20;;;;;;5025082;28;20028;-68
2022/10/27 00:29:21;;;;;;;13.73;7.18;;;11.10;72.60;;;;;;5018058;28;20102;-68
2022/10/27 00:31:46;;;;;;;15.07;6.50;;;11.00;72.80;;;;;;5015168;28;20068;-68
2022/10/27 00:34:15;;;;;;;17.42;7.38;;;11.10;72.70;;;;;;5018117;28;20108;-68
2022/10/27 00:36:41;;;;;;;18.73;7.90;;;11.10;73.00;;;;;;5020892;28;20033;-67
2022/10/27 00:39:07;;;;;;;18.15;8.18;;;11.10;72.70;;;;;;5015424;28;20037;-68
2022/10/27 00:41:35;;;;;;;17.60;7.55;;;11.10;73.10;;;;;;5027285;28;20026;-68
2022/10/27 00:44:33;;;;;;;21.48;7.88;;;11.10;73.00;;;;;;5023811;28;20056;-68
2022/10/27 00:47:14;;;;;;;17.20;7.90;;;11.10;73.00;;;;;;5019880;28;20315;-68
2022/10/27 00:49:44;;;;;;;17.90;6.72;;;11.10;73.80;;;;;;5017065;28;20030;-68
2022/10/27 00:52:29;;;;;;;17.38;8.07;;;11.10;73.60;;;;;;5025672;28;20025;-68
2022/10/27 00:54:59;;;;;;;14.82;7.35;;;11.10;73.90;;;;;;5014481;28;20044;-68
2022/10/27 00:57:27;;;;;;;16.67;7.60;;;11.00;73.50;;;;;;5015540;28;20077;-68
2022/10/27 00:59:53;;;;;;;18.98;6.88;;;11.10;73.90;;;;;;5024965;28;20025;-68
2022/10/27 01:02:21;;;;;;;15.40;5.95;;;11.10;73.50;;;;;;5022086;28;20105;-68
2022/10/27 01:05:05;;;;;;;15.18;4.85;;;11.00;74.20;;;;;;5030154;28;20362;-68
2022/10/27 01:07:31;;;;;;;15.88;5.60;;;11.00;73.50;;;;;;5024152;28;20017;-68
2022/10/27 01:10:01;;;;;;;19.35;6.18;;;10.90;73.50;;;;;;5018306;28;20115;-67
2022/10/27 01:12:29;;;;;;;11.75;5.90;;;11.10;72.80;;;;;;5022079;28;20033;-68
2022/10/27 01:14:55;;;;;;;18.90;6.75;;;11.10;74.20;;;;;;5026577;28;20052;-69
2022/10/27 01:17:39;;;;;;;16.10;6.65;;;11.00;75.00;;;;;;5015939;28;20492;-68
2022/10/27 01:20:35;;;;;;;18.95;6.13;;;10.90;74.70;;;;;;5016422;28;20329;-68
2022/10/27 01:23:04;;;;;;;13.50;5.93;;;10.90;74.80;;;;;;5017743;28;20362;-68
2022/10/27 01:25:51;;;;;;;13.85;6.65;;;10.90;73.40;;;;;;5021132;28;20022;-68
2022/10/27 01:28:17;;;;;;;15.80;7.45;;;10.90;73.00;;;;;;5011182;28;20061;-68
2022/10/27 01:31:03;;;;;;;18.35;7.32;;;11.00;72.50;;;;;;5018864;28;20434;-68
2022/10/27 01:33:43;;;;;;;18.33;6.97;;;11.10;72.60;;;;;;5015521;28;20022;-68
2022/10/27 01:36:42;;;;;;;18.38;7.03;;;11.10;72.90;;;;;;5026430;28;20042;-68
2022/10/27 01:39:32;;;;;;;19.88;7.28;;;11.10;73.00;;;;;;5026288;28;20037;-68
2022/10/27 01:42:10;;;;;;;12.88;7.35;;;11.10;73.90;;;;;;5014097;28;20080;-68
2022/10/27 01:44:42;;;;;;;15.15;7.05;;;11.00;75.00;;;;;;5018767;28;20025;-68
2022/10/27 01:47:12;;;;;;;15.48;7.20;;;10.90;74.60;;;;;;5023307;28;20026;-67
2022/10/27 01:49:40;;;;;;;16.35;6.75;;;11.00;73.60;;;;;;5030914;28;20029;-68
2022/10/27 01:52:36;;;;;;;19.60;7.45;;;11.00;74.00;;;;;;5014168;28;20052;-68
2022/10/27 01:55:02;;;;;;;15.45;6.50;;;11.00;74.40;;;;;;5011755;28;20033;-68
2022/10/27 01:57:44;;;;;;;22.17;7.45;;;10.90;75.10;;;;;;5026811;28;20030;-68
2022/10/27 02:00:10;;;;;;;18.42;6.78;;;10.80;75.50;;;;;;5026808;28;20032;-68
2022/10/27 02:02:58;;;;;;;17.70;6.90;;;10.80;74.50;;;;;;5027694;28;20037;-68
2022/10/27 02:05:31;;;;;;;15.13;6.55;;;10.70;76.40;;;;;;5020026;28;20030;-68
2022/10/27 02:08:05;;;;;;;16.25;5.70;;;10.60;74.80;;;;;;5022877;28;20030;-68
2022/10/27 02:10:38;;;;;;;18.08;6.28;;;10.70;74.20;;;;;;5017629;28;20057;-68
2022/10/27 02:13:04;;;;;;;17.42;5.93;;;10.60;75.40;;;;;;5012148;28;20034;-68
2022/10/27 02:15:38;;;;;;;11.48;5.47;;;10.50;74.50;;;;;;5015886;28;20426;-68
2022/10/27 02:18:28;;;;;;;17.15;6.03;;;10.50;75.30;;;;;;5013995;28;20040;-68
2022/10/27 02:21:00;;;;;;;23.48;6.68;;;10.50;73.50;;;;;;5025708;28;20044;-68
2022/10/27 02:23:29;;;;;;;18.95;7.20;;;10.70;73.20;;;;;;5028906;28;20032;-68
2022/10/27 02:26:25;;;;;;;15.43;6.38;;;10.80;73.70;;;;;;5028859;28;20033;-68
2022/10/27 02:28:58;;;;;;;22.27;8.98;;;10.80;74.50;;;;;;5015188;28;20044;-68
2022/10/27 02:31:28;;;;;;;18.48;8.88;;;10.70;75.00;;;;;;5018638;28;20033;-68
2022/10/27 02:33:58;;;;;;;19.15;7.82;;;10.70;73.20;;;;;;5018736;28;20052;-68
2022/10/27 02:36:24;;;;;;;16.00;7.03;;;10.60;74.50;;;;;;5015519;28;20050;-68
2022/10/27 02:38:50;;;;;;;17.92;8.80;;;10.60;73.90;;;;;;5013131;28;20041;-68
2022/10/27 02:41:15;;;;;;;18.13;7.80;;;10.50;73.30;;;;;;5012989;28;20026;-68
2022/10/27 02:43:41;;;;;;;21.45;9.05;;;10.40;72.90;;;;;;5012151;28;20022;-69
2022/10/27 02:46:07;;;;;;;22.00;8.68;;;10.50;71.40;;;;;;5017578;28;20445;-68
2022/10/27 02:48:32;;;;;;;18.90;9.73;;;10.60;70.70;;;;;;5025917;28;20030;-68
2022/10/27 02:50:58;;;;;;;23.13;9.18;;;10.50;71.50;;;;;;5012557;28;20042;-68
2022/10/27 02:53:24;;;;;;;22.73;10.18;;;10.40;71.20;;;;;;5008510;28;20033;-68
2022/10/27 02:55:53;;;;;;;23.48;9.73;;;10.40;70.80;;;;;;5014114;28;20441;-68
2022/10/27 02:58:18;;;;;;;27.70;10.32;;;10.40;70.50;;;;;;5020368;28;20025;-68
2022/10/27 03:00:44;;;;;;;25.70;10.80;;;10.50;70.30;;;;;;5015480;28;20033;-67
2022/10/27 03:03:10;;;;;;;22.23;8.13;;;10.50;69.90;;;;;;5023019;28;20022;-67
2022/10/27 03:05:35;;;;;;;18.42;7.70;;;10.40;69.90;;;;;;5021225;28;20374;-67
2022/10/27 03:08:02;;;;;;;17.52;7.57;;;10.50;69.70;;;;;;5025203;28;20365;-67
2022/10/27 03:10:28;;;;;;;13.05;6.80;;;10.40;69.70;;;;;;5017842;28;20057;-67
2022/10/27 03:12:53;;;;;;;19.15;9.48;;;10.40;70.20;;;;;;5016325;28;20477;-69
2022/10/27 03:15:19;;;;;;;21.10;6.60;;;10.40;70.40;;;;;;5016691;28;20041;-68
2022/10/27 03:17:46;;;;;;;20.45;7.43;;;10.30;69.70;;;;;;5017580;28;20022;-68
2022/10/27 03:20:13;;;;;;;24.40;8.80;;;10.30;70.00;;;;;;5019990;28;20374;-67
2022/10/27 03:22:40;;;;;;;22.63;9.48;;;10.30;70.30;;;;;;5026337;28;20095;-68
2022/10/27 03:25:06;;;;;;;18.08;7.85;;;10.20;70.60;;;;;;5026893;28;20101;-68
2022/10/27 03:27:31;;;;;;;13.90;7.38;;;10.20;69.70;;;;;;5025647;28;20029;-68
2022/10/27 03:29:57;;;;;;;17.80;8.05;;;10.20;69.70;;;;;;5019704;28;20030;-68
2022/10/27 03:32:23;;;;;;;18.30;7.30;;;10.20;69.90;;;;;;5020551;28;20478;-68
2022/10/27 03:34:48;;;;;;;16.30;7.75;;;10.10;69.70;;;;;;5024689;28;20101;-69
2022/10/27 03:37:16;;;;;;;22.42;8.20;;;10.20;69.70;;;;;;5022744;28;20150;-68
2022/10/27 03:39:42;;;;;;;17.33;7.30;;;10.40;68.20;;;;;;5026623;28;20061;-68
2022/10/27 03:42:07;;;;;;;20.17;7.57;;;10.60;69.30;;;;;;5023365;28;20106;-68
2022/10/27 03:44:33;;;;;;;15.95;8.38;;;10.50;69.60;;;;;;5019741;28;20037;-69
2022/10/27 03:46:59;;;;;;;21.92;8.38;;;10.40;69.70;;;;;;5024964;28;20022;-68
2022/10/27 03:49:30;;;;;;;17.73;8.25;;;10.40;70.10;;;;;;5021607;28;20025;-68
2022/10/27 03:51:55;;;;;;;18.83;6.80;;;10.50;68.80;;;;;;5011215;28;20169;-68
2022/10/27 03:54:21;;;;;;;17.23;8.07;;;10.40;69.70;;;;;;5023315;28;20108;-68
2022/10/27 03:56:46;;;;;;;22.30;8.30;;;10.50;68.90;;;;;;5031904;28;20018;-68
2022/10/27 03:59:12;;;;;;;18.42;8.13;;;10.50;69.60;;;;;;5017751;28;20025;-68
2022/10/27 04:01:38;;;;;;;15.80;7.28;;;10.50;69.60;;;;;;5025500;28;20578;-67
2022/10/27 04:04:04;;;;;;;18.13;7.05;;;10.40;69.30;;;;;;5024829;28;20045;-68
2022/10/27 04:06:30;;;;;;;20.42;7.40;;;10.50;69.50;;;;;;5026766;28;20119;-68
2022/10/27 04:08:56;;;;;;;16.58;7.88;;;10.40;69.90;;;;;;5036371;28;20040;-69
2022/10/27 04:11:23;;;;;;;17.33;6.63;;;10.40;69.10;;;;;;5017110;28;20041;-66
2022/10/27 04:13:49;;;;;;;15.82;7.28;;;10.40;69.70;;;;;;5021463;28;20108;-68
2022/10/27 04:16:15;;;;;;;23.13;8.40;;;10.50;69.60;;;;;;5018282;28;20118;-67
2022/10/27 04:18:40;;;;;;;23.85;10.15;;;10.40;70.40;;;;;;5016910;28;20033;-68
2022/10/27 04:21:06;;;;;;;19.05;7.75;;;10.20;71.00;;;;;;5035328;28;20425;-68
2022/10/27 04:23:32;;;;;;;17.00;7.00;;;10.10;70.20;;;;;;5018384;28;20410;-68
2022/10/27 04:25:58;;;;;;;13.57;6.40;;;10.10;70.40;;;;;;5019741;28;20029;-68
2022/10/27 04:28:23;;;;;;;16.13;5.47;;;10.10;69.90;;;;;;5026155;28;20018;-68
2022/10/27 04:30:49;;;;;;;13.20;4.50;;;10.50;68.50;;;;;;5033839;28;20033;-68
2022/10/27 04:33:15;;;;;;;10.90;4.95;;;10.80;69.20;;;;;;5027715;28;20037;-68
2022/10/27 04:35:41;;;;;;;19.60;4.10;;;11.30;72.70;;;;;;5026724;28;20034;-68
2022/10/27 04:38:09;;;;;;;12.77;4.38;;;11.40;79.60;;;;;;5028468;28;20069;-68
2022/10/27 04:40:35;;;;;;;13.70;4.47;;;11.50;84.00;;;;;;5026759;28;20056;-68
2022/10/27 04:43:00;;;;;;;10.95;4.10;;;11.60;87.60;;;;;;5030208;28;20029;-67
2022/10/27 04:45:26;;;;;;;17.00;5.07;;;11.60;89.70;;;;;;5024212;28;20347;-68
2022/10/27 04:47:52;;;;;;;12.32;4.65;;;11.70;91.30;;;;;;5017973;28;20029;-67
2022/10/27 04:50:18;;;;;;;13.57;4.18;;;11.80;92.60;;;;;;5025556;28;20079;-68
2022/10/27 04:52:57;;;;;;;15.43;4.25;;;11.70;92.90;;;;;;5022736;28;20017;-68
2022/10/27 04:55:24;;;;;;;14.35;6.28;;;11.60;93.10;;;;;;5013316;28;20073;-68
2022/10/27 04:57:53;;;;;;;20.00;9.50;;;11.60;93.90;;;;;;5027633;28;20481;-68
2022/10/27 05:00:18;;;;;;;19.25;8.20;;;11.40;93.80;;;;;;5013154;28;20109;-68
2022/10/27 05:02:44;;;;;;;15.13;6.82;;;11.10;93.20;;;;;;5028609;28;20122;-68
2022/10/27 05:05:10;;;;;;;12.75;5.38;;;10.80;91.90;;;;;;5022710;28;20033;-68
2022/10/27 05:07:39;;;;;;;18.60;7.32;;;10.70;90.60;;;;;;5032883;28;20035;-69
2022/10/27 05:10:05;;;;;;;14.98;6.90;;;10.50;90.60;;;;;;5023572;28;20060;-67
2022/10/27 05:12:30;;;;;;;13.75;7.13;;;10.20;89.70;;;;;;5029484;28;20025;-67
2022/10/27 05:14:56;;;;;;;14.15;6.95;;;10.10;88.20;;;;;;5027140;28;20422;-68
2022/10/27 05:17:22;;;;;;;17.65;8.05;;;10.00;86.80;;;;;;5023201;28;20446;-68
2022/10/27 05:19:47;;;;;;;15.43;7.25;;;10.10;85.10;;;;;;5029654;28;20089;-68
2022/10/27 05:22:13;;;;;;;18.52;7.28;;;10.10;85.30;;;;;;5022806;28;20036;-68
2022/10/27 05:24:38;;;;;;;16.58;6.40;;;10.10;84.60;;;;;;5019353;28;20022;-68
2022/10/27 05:27:04;;;;;;;16.25;6.72;;;10.30;86.10;;;;;;5016559;28;20093;-68
2022/10/27 05:29:30;;;;;;;14.38;6.65;;;10.20;87.40;;;;;;5033386;28;20153;-68
2022/10/27 05:31:56;;;;;;;11.85;5.60;;;10.10;86.50;;;;;;5021778;28;20073;-68
2022/10/27 05:34:21;;;;;;;16.63;6.05;;;10.10;87.60;;;;;;5025953;28;20049;-67
2022/10/27 05:36:47;;;;;;;14.20;6.05;;;10.10;87.00;;;;;;5023061;28;20080;-67
2022/10/27 05:39:15;;;;;;;13.13;5.97;;;10.10;88.20;;;;;;5019962;28;20413;-68
2022/10/27 05:41:44;;;;;;;15.98;6.47;;;10.30;88.60;;;;;;5015072;28;20030;-68
2022/10/27 05:44:09;;;;;;;14.45;4.68;;;10.20;89.20;;;;;;5026632;28;20021;-68
2022/10/27 05:46:35;;;;;;;13.68;4.13;;;10.30;87.00;;;;;;5025686;28;20048;-68
2022/10/27 05:49:01;;;;;;;12.30;4.65;;;10.60;88.70;;;;;;5023950;28;20423;-68
2022/10/27 05:51:26;;;;;;;15.13;4.40;;;11.30;93.30;;;;;;5036789;28;20325;-67
2022/10/27 05:53:55;;;;;;;15.90;3.38;;;11.90;97.20;;;;;;5022738;28;20418;-68
2022/10/27 05:56:20;;;;;;;14.02;4.10;;;12.10;98.00;;;;;;5020772;28;20058;-67
2022/10/27 05:58:46;;;;;;;8.65;3.25;;;12.40;98.00;;;;;;5024972;28;20061;-67
2022/10/27 06:01:11;;;;;;;8.32;3.42;;;12.60;98.00;;;;;;5022312;28;20079;-70
2022/10/27 06:03:37;;;;;;;10.98;3.42;;;12.90;98.00;;;;;;5016751;28;20029;-68
2022/10/27 06:06:03;;;;;;;9.57;3.65;;;12.90;98.00;;;;;;5016784;28;20053;-67
2022/10/27 06:08:29;;;;;;;11.38;3.65;;;13.10;98.00;;;;;;5016697;28;20026;-68
2022/10/27 06:10:55;;;;;;;16.00;3.88;;;13.30;98.00;;;;;;5022481;28;20493;-68
2022/10/27 06:13:21;;;;;;;15.40;3.67;;;13.50;98.00;;;;;;5029959;28;20041;-67
2022/10/27 06:15:47;;;;;;;12.80;3.90;;;13.70;98.00;;;;;;5016975;28;20022;-67
2022/10/27 06:18:14;;;;;;;15.40;4.47;;;13.70;98.00;;;;;;5027154;28;20032;-66
2022/10/27 06:20:40;;;;;;;16.63;3.40;;;13.80;98.00;;;;;;5032668;28;20032;-67
2022/10/27 06:23:09;;;;;;;11.40;3.30;;;13.90;98.00;;;;;;5033590;28;20028;-66
2022/10/27 06:25:34;;;;;;;13.30;4.18;;;13.90;98.00;;;;;;5025913;28;20021;-68
2022/10/27 06:28:00;;;;;;;9.38;3.20;;;13.90;98.00;;;;;;5031815;28;20484;-68
2022/10/27 06:30:26;;;;;;;9.32;3.28;;;13.90;98.00;;;;;;5031068;28;20088;-68
2022/10/27 06:32:52;;;;;;;10.48;3.67;;;13.90;98.00;;;;;;5031627;28;20326;-68
2022/10/27 06:35:18;;;;;;;12.48;4.28;;;14.00;98.00;;;;;;5032726;28;20073;-68
2022/10/27 06:37:47;;;;;;;10.40;4.00;;;14.20;98.00;;;;;;5033688;28;20042;-68
2022/10/27 06:40:15;;;;;;;11.13;3.38;;;14.30;98.00;;;;;;5032382;28;20021;-68
2022/10/27 06:42:48;;;;;;;13.88;4.03;;;14.20;98.00;;;;;;5016245;28;20026;-68
2022/10/27 06:45:16;;;;;;;18.27;4.07;;;14.20;98.00;;;;;;5015150;28;20017;-67
2022/10/27 06:47:41;;;;;;;11.13;3.38;;;14.40;98.00;;;;;;5026257;28;20024;-68
2022/10/27 06:50:07;;;;;;;14.95;4.05;;;14.40;98.00;;;;;;5014521;28;20109;-68
2022/10/27 06:52:37;;;;;;;10.73;3.65;;;14.60;98.00;;;;;;5034177;28;20422;-68
2022/10/27 06:55:04;;;;;;;11.88;3.53;;;14.60;98.00;;;;;;5034883;28;20029;-68
2022/10/27 06:57:37;;;;;;;10.30;3.75;;;14.60;98.00;;;;;;5033002;28;20056;-68
2022/10/27 07:00:03;;;;;;;9.57;2.83;;;14.60;98.00;;;;;;5035811;28;20032;-68
2022/10/27 07:02:31;;;;;;;14.10;3.65;;;14.80;97.50;;;;;;5030949;28;20108;-68
2022/10/27 07:04:57;;;;;;;16.73;3.63;;;14.90;97.30;;;;;;5035990;28;20024;-68
2022/10/27 07:07:22;;;;;;;12.07;3.22;;;15.00;97.00;;;;;;5027443;28;20418;-68
2022/10/27 07:09:48;;;;;;;16.80;3.58;;;15.10;96.80;;;;;;5026662;28;20039;-68
2022/10/27 07:12:14;;;;;;;14.80;3.50;;;15.20;96.80;;;;;;5035774;28;20104;-68
2022/10/27 07:14:39;;;;;;;12.15;3.47;;;15.20;97.00;;;;;;5026014;28;20365;-68
2022/10/27 07:17:05;;;;;;;9.82;3.40;;;15.20;96.90;;;;;;5021788;28;20037;-68
2022/10/27 07:19:30;;;;;;;15.60;4.45;;;15.30;96.70;;;;;;5035723;28;20029;-68
2022/10/27 07:21:56;;;;;;;13.98;3.75;;;15.20;96.80;;;;;;5034333;28;20026;-68
2022/10/27 07:24:22;;;;;;;13.50;3.60;;;15.30;96.50;;;;;;5032217;28;20147;-68
2022/10/27 07:26:47;;;;;;;12.68;3.95;;;15.40;96.40;;;;;;5031019;28;20025;-68
2022/10/27 07:29:13;;;;;;;9.25;3.60;;;15.40;96.10;;;;;;5018782;28;20025;-68
2022/10/27 07:31:43;;;;;;;12.73;3.40;;;15.50;96.10;;;;;;5023812;28;20065;-67
2022/10/27 07:34:09;;;;;;;23.77;3.83;;;15.60;95.70;;;;;;5035766;28;20029;-68
2022/10/27 07:36:34;;;;;;;11.15;3.22;;;15.70;95.30;;;;;;5033453;28;20080;-68
2022/10/27 07:39:00;;;;;;;11.13;3.72;;;15.80;95.20;;;;;;5035633;28;20456;-68
2022/10/27 07:41:26;;;;;;;12.48;3.75;;;15.90;94.70;;;;;;5015255;28;20464;-68
2022/10/27 07:43:51;;;;;;;13.27;3.35;;;16.00;94.50;;;;;;5033715;28;20036;-68
2022/10/27 07:46:20;;;;;;;11.40;3.22;;;16.00;94.30;;;;;;5035547;28;20025;-68
2022/10/27 07:48:45;;;;;;;16.02;3.70;;;16.10;93.80;;;;;;5033942;28;20038;-68
2022/10/27 07:51:14;;;;;;;12.52;3.90;;;16.30;93.50;;;;;;5035518;28;20084;-68
2022/10/27 07:53:39;;;;;;;13.70;3.83;;;16.80;91.90;;;;;;5037078;28;20029;-68
2022/10/27 07:56:05;;;;;;;12.90;3.00;;;17.60;89.90;;;;;;5025833;28;20042;-68
2022/10/27 07:58:31;;;;;;;15.45;3.53;;;18.20;88.20;;;;;;5026496;28;20025;-68
2022/10/27 08:00:58;;;;;;;11.32;3.08;;;18.60;86.20;;;;;;5033403;28;20326;-68
2022/10/27 08:03:28;;;;;;;11.35;3.63;;;18.70;85.80;;;;;;5034152;28;20018;-68
2022/10/27 08:05:54;;;;;;;12.05;3.60;;;18.90;85.60;;;;;;5025383;28;20033;-68
2022/10/27 08:08:20;;;;;;;10.90;2.78;;;18.80;84.90;;;;;;5035144;28;20030;-68
2022/10/27 08:10:48;;;;;;;15.98;2.85;;;18.40;85.10;;;;;;5017715;28;20448;-68
2022/10/27 08:13:15;;;;;;;9.45;2.60;;;17.80;86.20;;;;;;5034987;28;20349;-68
2022/10/27 08:15:41;;;;;;;12.57;2.67;;;17.40;86.50;;;;;;5038767;28;20032;-68
2022/10/27 08:18:08;;;;;;;11.13;2.70;;;17.20;87.00;;;;;;5025791;28;20406;-68
2022/10/27 08:20:37;;;;;;;5.63;2.10;;;17.20;86.80;;;;;;5018882;28;20440;-68
2022/10/27 08:23:05;;;;;;;7.25;2.25;;;17.40;86.60;;;;;;5032260;28;20421;-68
2022/10/27 08:25:31;;;;;;;8.80;2.60;;;18.40;85.40;;;;;;5007601;28;20084;-68
2022/10/27 08:27:58;;;;;;;13.93;3.08;;;19.30;79.10;;;;;;5031217;28;20353;-68
2022/10/27 08:30:29;;;;;;;10.43;2.42;;;20.00;78.20;;;;;;5035161;28;20051;-68
2022/10/27 08:32:57;;;;;;;11.05;2.40;;;20.30;76.80;;;;;;5035284;28;20064;-68
2022/10/27 08:35:24;;;;;;;7.43;2.15;;;20.40;75.90;;;;;;5037153;28;20017;-68
2022/10/27 08:38:04;;;;;;;9.00;2.47;;;20.60;75.70;;;;;;5036441;28;20389;-68
2022/10/27 08:41:07;;;;;;;7.82;2.40;;;21.00;74.70;;;;;;5035033;28;20025;-69
2022/10/27 08:43:45;;;;;;;10.75;2.47;;;21.20;74.10;;;;;;5002927;28;20026;-68
2022/10/27 08:46:18;;;;;;;14.20;3.35;;;21.80;73.30;;;;;;5020603;28;20086;-68
2022/10/27 08:48:45;;;;;;;;;;;22.00;72.00;;;;;;5038633;28;20030;-68
2022/10/27 08:51:19;;;;;;;11.20;2.53;;;22.10;71.60;;;;;;5036489;28;19967;-68
2022/10/27 08:53:48;;;;;;;10.30;2.00;;;22.40;71.40;;;;;;5038195;28;20030;-68
2022/10/27 08:56:15;;;;;;;6.93;1.95;;;22.60;71.30;;;;;;5034506;28;20026;-68
2022/10/27 08:58:47;;;;;;;9.45;2.40;;;22.90;71.10;;;;;;5032996;28;20044;-68
2022/10/27 09:01:43;;;;;;;11.55;2.72;;;23.30;69.70;;;;;;5020643;28;20029;-69
2022/10/27 09:04:19;;;;;;;9.45;2.83;;;24.00;70.20;;;;;;5037455;28;20033;-68
2022/10/27 09:06:53;;;;;;;8.40;2.42;;;24.60;67.50;;;;;;5033841;28;20091;-68
2022/10/27 09:09:22;;;;;;;9.90;2.20;;;24.70;66.30;;;;;;5037720;28;20443;-68
2022/10/27 09:12:02;;;;;;;11.35;2.13;;;24.40;66.90;;;;;;5035380;28;20025;-68
2022/10/27 09:14:46;;;;;;;10.00;2.40;;;24.20;68.60;;;;;;5035245;28;20025;-68
2022/10/27 09:17:22;;;;;;;9.27;2.05;;;24.20;66.40;;;;;;4998180;28;20026;-68
2022/10/27 09:19:52;;;;;;;14.68;2.25;;;23.90;67.50;;;;;;5007430;28;20469;-68
2022/10/27 09:22:20;;;;;;;7.22;2.75;;;23.60;69.00;;;;;;5017644;28;20156;-68
2022/10/27 09:25:19;;;;;;;10.05;2.97;;;23.60;70.50;;;;;;5019383;28;20048;-69
2022/10/27 09:27:48;;;;;;;8.95;2.50;;;24.30;70.40;;;;;;5022610;28;20418;-68
2022/10/27 09:30:15;;;;;;;10.05;2.50;;;24.60;70.10;;;;;;5016710;28;20318;-69
2022/10/27 09:32:46;;;;;;;11.20;3.45;;;25.10;69.70;;;;;;5022939;28;20025;-68
2022/10/27 09:35:15;;;;;;;9.45;3.00;;;25.30;68.20;;;;;;5037280;28;20032;-70
2022/10/27 09:37:41;;;;;;;7.65;2.90;;;24.40;70.60;;;;;;5035052;28;20517;-69
2022/10/27 09:40:27;;;;;;;7.97;2.88;;;24.30;71.20;;;;;;5035919;28;20034;-69
2022/10/27 09:42:55;;;;;;;7.40;2.50;;;24.00;73.10;;;;;;5035627;28;20053;-69
2022/10/27 09:45:23;;;;;;;9.48;2.58;;;24.30;73.60;;;;;;5026299;28;20112;-69
2022/10/27 09:47:59;;;;;;;8.05;2.97;;;25.10;70.80;;;;;;5024120;28;20036;-69
2022/10/27 09:50:42;;;;;;;8.88;3.40;;;25.00;69.60;;;;;;5017318;28;20052;-69
2022/10/27 09:53:37;;;;;;;12.82;3.75;;;24.80;70.30;;;;;;5031791;28;20317;-67
2022/10/27 09:56:04;;;;;;;9.57;3.28;;;24.50;70.80;;;;;;5035972;28;20317;-68
2022/10/27 09:58:31;;;;;;;9.27;2.90;;;24.70;71.60;;;;;;5030572;28;20029;-67
2022/10/27 10:01:04;;;;;;;10.90;3.60;;;24.90;70.70;;;;;;5015692;28;20034;-67
2022/10/27 10:03:29;;;;;;;10.18;3.05;;;25.10;70.20;;;;;;5028728;28;20304;-67
2022/10/27 10:06:04;;;;;;;7.18;2.67;;;25.60;70.10;;;;;;5036594;28;20114;-67
2022/10/27 10:08:35;;;;;;;8.95;3.25;;;26.00;69.40;;;;;;5034328;28;20029;-68
2022/10/27 10:11:17;;;;;;;7.78;2.90;;;25.90;69.60;;;;;;5035592;28;20435;-68
2022/10/27 10:14:02;;;;;;;12.02;2.90;;;26.00;69.30;;;;;;5027082;28;20056;-67
2022/10/27 10:16:29;;;;;;;13.77;3.72;;;25.50;69.90;;;;;;5014993;28;20092;-67
2022/10/27 10:19:04;;;;;;;11.02;3.00;;;25.50;70.40;;;;;;5015834;28;20041;-67
2022/10/27 10:21:55;;;;;;;9.02;2.80;;;25.30;71.20;;;;;;5015554;28;20064;-68
2022/10/27 10:24:28;;;;;;;10.60;2.78;;;25.70;71.10;;;;;;5016661;28;20054;-67
2022/10/27 10:26:58;;;;;;;10.40;3.00;;;25.80;70.50;;;;;;5016513;28;20029;-66
2022/10/27 10:29:33;;;;;;;7.85;3.13;;;26.10;69.30;;;;;;5016691;28;20057;-68
2022/10/27 10:32:15;;;;;;;11.02;3.20;;;25.90;69.30;;;;;;5016422;28;20085;-66
2022/10/27 10:34:42;;;;;;;13.88;2.70;;;25.20;71.20;;;;;;5016470;28;20034;-66
2022/10/27 10:37:31;;;;;;;10.07;3.00;;;25.20;71.60;;;;;;5015289;28;20124;-66
2022/10/27 10:40:12;;;;;;;8.05;2.92;;;26.10;71.20;;;;;;5015329;28;20030;-68
2022/10/27 10:42:39;;;;;;;9.38;2.80;;;26.50;69.90;;;;;;5015437;28;20025;-68
2022/10/27 10:45:17;;;;;;;7.13;2.50;;;26.60;68.70;;;;;;5016430;28;20030;-68
2022/10/27 10:47:47;;;;;;;7.88;3.25;;;27.00;68.40;;;;;;5016155;28;20018;-67
2022/10/27 10:50:14;;;;;;;7.65;2.97;;;26.70;68.50;;;;;;5016300;28;20323;-68
2022/10/27 10:52:49;;;;;;;10.68;2.97;;;26.30;69.40;;;;;;5016270;28;20055;-68
2022/10/27 10:55:41;;;;;;;9.80;2.97;;;26.10;70.80;;;;;;5015195;28;20026;-67
2022/10/27 10:58:16;;;;;;;8.73;3.00;;;26.00;70.60;;;;;;5015013;28;20041;-67
2022/10/27 11:01:03;;;;;;;10.55;4.43;;;25.90;71.10;;;;;;5016180;28;20423;-68
2022/10/27 11:03:40;;;;;;;10.88;3.88;;;26.30;71.70;;;;;;5015999;28;20300;-68
2022/10/27 11:06:18;;;;;;;16.25;3.78;;;26.10;71.20;;;;;;5016284;28;20386;-67
2022/10/27 11:08:58;;;;;;;11.38;4.45;;;26.00;72.70;;;;;;5017696;28;20022;-67
2022/10/27 11:11:26;;;;;;;11.00;4.03;;;26.20;71.60;;;;;;5018275;28;20034;-68
2022/10/27 11:14:00;;;;;;;11.38;3.80;;;26.10;72.60;;;;;;5030647;28;20350;-68
2022/10/27 11:16:30;;;;;;;11.85;3.88;;;25.80;71.90;;;;;;5025730;28;20105;-68
2022/10/27 11:19:03;;;;;;;10.15;3.90;;;25.40;73.20;;;;;;5021095;28;20087;-68
2022/10/27 11:21:55;;;;;;;14.60;3.97;;;25.10;74.60;;;;;;5035822;28;20022;-67
2022/10/27 11:24:41;;;;;;;13.38;3.92;;;25.40;74.30;;;;;;5031017;28;20345;-68
2022/10/27 11:27:20;;;;;;;11.07;3.20;;;25.10;74.00;;;;;;5034131;28;20322;-68
2022/10/27 11:30:02;;;;;;;12.75;3.65;;;25.00;75.70;;;;;;5011990;28;20041;-68
2022/10/27 11:32:48;;;;;;;9.65;2.97;;;25.30;74.90;;;;;;5021292;28;20021;-68
2022/10/27 11:35:26;;;;;;;12.35;3.40;;;25.60;73.40;;;;;;5039606;28;20080;-68
2022/10/27 11:38:03;;;;;;;9.15;3.30;;;25.40;72.70;;;;;;5037121;28;20326;-67
2022/10/27 11:40:33;;;;;;;8.70;3.20;;;25.30;73.30;;;;;;5038389;28;20092;-68
2022/10/27 11:43:27;;;;;;;11.05;3.22;;;25.30;74.60;;;;;;5020743;28;20084;-68
2022/10/27 11:46:00;;;;;;;;;;;25.40;73.00;;;;;;5005938;28;20030;-67
2022/10/27 11:48:44;;;;;;;13.52;3.85;;;25.60;73.50;;;;;;5039150;28;20043;-68
2022/10/27 11:51:27;;;;;;;9.52;3.15;;;25.60;74.70;;;;;;5037760;28;20032;-67
2022/10/27 11:53:53;;;;;;;8.02;2.67;;;25.60;74.60;;;;;;5039152;28;20160;-68
2022/10/27 11:56:27;;;;;;;13.32;3.47;;;25.60;74.00;;;;;;5036631;28;20306;-67
2022/10/27 11:58:56;;;;;;;10.32;2.83;;;25.30;74.30;;;;;;5015298;28;20448;-67
2022/10/27 12:01:53;;;;;;;10.90;3.30;;;25.20;75.80;;;;;;5024256;28;20036;-67
2022/10/27 12:04:36;;;;;;;10.25;3.00;;;25.30;75.40;;;;;;5038952;28;20021;-68
2022/10/27 12:07:20;;;;;;;10.20;3.58;;;25.30;74.90;;;;;;5035020;28;20105;-68
2022/10/27 12:10:04;;;;;;;11.25;3.50;;;25.30;74.70;;;;;;4998512;28;20030;-68
2022/10/27 12:12:43;;;;;;;13.52;3.38;;;25.30;75.10;;;;;;5027265;28;20059;-68
2022/10/27 12:15:21;;;;;;;10.40;3.13;;;25.20;75.30;;;;;;5015427;28;20054;-68
2022/10/27 12:18:06;;;;;;;9.45;3.88;;;25.20;75.50;;;;;;5025871;28;20021;-68
2022/10/27 12:20:43;;;;;;;10.88;4.40;;;25.40;74.60;;;;;;5026179;28;20318;-68
2022/10/27 12:23:21;;;;;;;10.93;3.20;;;25.60;74.50;;;;;;5036327;28;20128;-68
2022/10/27 12:26:19;;;;;;;8.55;3.13;;;25.50;73.90;;;;;;5024431;28;20386;-68
2022/10/27 12:28:45;;;;;;;11.45;3.70;;;25.50;75.10;;;;;;5029764;28;20077;-68
2022/10/27 12:31:17;;;;;;;8.75;3.10;;;25.70;74.40;;;;;;5019699;28;20073;-68
2022/10/27 12:33:51;;;;;;;10.05;3.85;;;26.20;74.10;;;;;;5038496;28;20021;-68
2022/10/27 12:36:34;;;;;;;8.90;3.30;;;25.80;74.60;;;;;;5024898;28;20099;-67
2022/10/27 12:39:04;;;;;;;12.25;3.38;;;25.60;74.60;;;;;;5036089;28;20076;-67
2022/10/27 12:41:39;;;;;;;13.32;3.53;;;25.50;75.00;;;;;;5022152;28;20013;-67
2022/10/27 12:44:24;;;;;;;10.48;2.63;;;25.50;75.00;;;;;;5022943;28;20029;-67
2022/10/27 12:47:11;;;;;;;9.43;2.85;;;25.50;74.20;;;;;;5024827;28;20418;-68
2022/10/27 12:50:00;;;;;;;8.18;2.80;;;25.80;73.60;;;;;;5019080;28;20036;-67
2022/10/27 12:52:28;;;;;;;11.48;2.63;;;25.60;73.40;;;;;;5019587;28;20057;-68
2022/10/27 12:55:23;;;;;;;7.05;2.33;;;25.40;73.00;;;;;;5036883;28;20096;-67
2022/10/27 12:57:57;;;;;;;7.75;2.10;;;25.40;72.90;;;;;;5034975;28;20028;-68